Weather at Mudgee Airport

Public forecast

Using degrees Celsius for public forecast. Weather courtesy of forecast.io.

Closest aviation weather report (METAR) to Mudgee Airport

Closest report is Dubbo City Regional Airport, 56.5 nm (104.6 km) WNW.

2023/01/26 21:00 (retrieved 31 minutes ago)

YSDU 262100Z AUTO 07009KT 9999 // NCD 24/15 Q1013 RF000/0000

Closest aviation forecast (TAF) to Mudgee Airport

Closest forecast is Dubbo City Regional Airport, 56.5 nm (104.6 km) WNW.

2023/01/26 18:36 (retrieved 3 hours ago)

TAF YSDU 261707Z 2618/2712 08010KT CAVOK FM261900 03010KT CAVOK FM270100 06010KT CAVOK FM270400 23008KT 9999 -SHRA NSC FM270900 14012KT CAVOK PROB30 INTER 2705/2709 VRB20G30KT 2000 TSRA SCT020 FEW080CB